Thursday, May 26, 2016
10:39 UTC
  |  Log In   |  Register Free
Airport Search:

Talladega Municipal Airport
(KASN)

Talladega Municipal Airport Diagram
No Airport Diagram Available

FAA data valid effective Mar 31 2016 - May 26 2016 (unless otherwise noted).

 
 
 
 
 
 
 
 
 
 
 
 
 
 
Current Aviation Weather for KASN

Weather Summary


The most recent METAR observation for ASN was updated at: 12:53 UTC
METAR for KASN is not available. Closest METAR is for KANB
KASN  (most recent observation was updatred at 26:10 UTC)
261035Z AUTO 00000KT 10SM CLR A3017 RMK AO2

KANB  (9.7 nm SW)   (most recent observation was updated at 26:09 UTC)
260953Z AUTO 00000KT 10SM CLR 18/16 A3016 RMK AO2 SLP203 T01780161

KGAD  (24.3 nm SE)   (most recent observation was updated at 26:09 UTC)
260956Z AUTO 00000KT 10SM CLR 17/16 A3015 RMK AO2 SLP223 T01670156

TAF for KASN is not available.
KASN
260520Z 2606/2706 12002KT P6SM SCT250 FM261000 10002KT 5SM BR FEW250 FM261400 20006KT P6SM FEW250

KANB  (9.7 nm SW)   (most recent observation was updatred at 26:05 UTC)
260520Z 2606/2706 10002KT P6SM SCT250 FM261100 08003KT 5SM BR FEW250 FM261400 19006KT P6SM FEW250


KBHM  (35.1 nm NE)   (most recent observation was updatred at 26:05 UTC)
260520Z 2606/2706 18002KT P6SM SCT250 FM261300 16008KT P6SM FEW250
GlobalAir.com is loading additional information.
 Current Weather at ASN


North winds at 0.0 mph
Pressure:
30.14 in
Humidity:
%
Wind:
North at 0.0 mph
Dew Point:
Visibility:
10.00 mi
ASN NOAA Radar




Find All Airport Services Find A Hotel Find A Rental Car Find A Golf Course Find A Restaurant $100 Hamburger



Airport Weather Forecast for KASN

Translated METAR for KASN (0953 UTC)
METAR:
KANB 260953Z AUTO 00000KT 10SM CLR 18/16 A3016 RMK AO2 SLP203 T01780161

KANB 260853Z AUTO 00000KT 10SM CLR 18/16 A3014 RMK AO2 SLP199 T01780156 53002

KANB 260753Z AUTO 00000KT 10SM CLR 19/17 A3013 RMK AO2 SLP194 T01890167

KASN 261035Z AUTO 00000KT 10SM CLR A3017 RMK AO2

TAF KANB 260520Z 2606/2706 10002KT P6SM SCT250 FM261100 08003KT 5SM BR FEW250 FM261400 19006KT P6SM FEW250

TAF KASN 260520Z 2606/2706 12002KT P6SM SCT250 FM261000 10002KT 5SM BR FEW250 FM261400 20006KT P6SM FEW250

Conditions at:
KANB (Anniston Rgnl, AL) observed 0953 UTC 26 May 2016
Temperature:
18°C (64.4°F)
Dewpoint:
16°C (60.8°F) [RH = 88.1]
Pressure:
30.16 inches Hg (1021.3 mb)
pressure at sea level is 203 in Hg
pressure at sea level is 199 in Hg
pressure at sea level is 194 in Hg
Winds:
from the N (000 degrees) at 0 mph (0 knots: 0 m/s)
Visibility:
P6 mile(s)
Ceiling:
at least 12,000 feet AGL
Clouds:
Clear below 12,000 feet AGL
Remarks:
site is un-manned
site is automated and HAS a precipitation sensor

Translated TAF for KASN (Talladega Muni, AL) (0520 UTC)
TAF text:
KASN 260520Z 2606/2706 12002KT P6SM SCT250
Forecast period:
Thursday May 26 2016 06:00 UTC - Friday May 27 2016 06:00 UTC
Forecast type:
FROM: standard forecast or significant change
Winds:
from the ESE (120 degrees) at 2.3 mph (2 knots: 1 m/s)
Visibility:
6 or more mile(s) (9.7+ km)
Ceiling:
at least 12,000 feet AGL
Clouds:
Scattered Clouds at 25,000 feet AGL
Weather:
no significant weather observed at this time
TAF text:
FM261000 10002KT 5SM BR FEW250
Forecast period:
Thursday May 26 2016 10:00 UTC - Thursday May 26 2016 14:00 UTC
Forecast type:
FROM: standard forecast or significant change
Winds:
from the E (100 degrees) at 2.3 mph (2 knots: 1 m/s)
Visibility:
5 mile(s) (8 km)
Ceiling:
at least 12,000 feet AGL
Clouds:
Few Clouds at 25,000 feet AGL
Weather:
Moderate Mist
TAF text:
FM261400 20006KT P6SM FEW250
Forecast period:
Thursday May 26 2016 14:00 UTC - Friday May 27 2016 06:00 UTC
Forecast type:
FROM: standard forecast or significant change
Winds:
from the SSW (200 degrees) at 6.9 mph (6 knots: 3.1 m/s)
Visibility:
6 or more mile(s) (9.7+ km)
Ceiling:
at least 12,000 feet AGL
Clouds:
Few Clouds at 25,000 feet AGL
Weather:
no significant weather observed at this time
FBO's on the Field
FBO Company Facility Photos Services Transportation Aviation Fuel Prices: Prices include tax
Catering Weather Repair Courtesy Rental Type 100LL JetA JetA+ MOGAS 8087
 
Talladega Municipal

This FBO has not yet been rated
FS:Phillips 66
Last Updated: May-23
Login to update fuel prices
SS:
Contact Talladega MunicipalMore FBO Information
 
Add another FBO Facility Photos Catering Weather Repair Courtesy Rental Type 100LL JetA JetA+ MOGAS 8087
Services Transportation Aviation Fuel Prices: Prices include tax


model-print
model-print
model-print
model-print